sensor_id;sensor_type;location;lat;lon;timestamp;temperature;humidity
48206;DHT22;33995;48.202;16.260;2023-12-07T00:01:20;3.10;99.90
48206;DHT22;33995;48.202;16.260;2023-12-07T00:03:47;3.10;99.90
48206;DHT22;33995;48.202;16.260;2023-12-07T00:06:14;3.10;99.90
48206;DHT22;33995;48.202;16.260;2023-12-07T00:08:41;3.10;99.90
48206;DHT22;33995;48.202;16.260;2023-12-07T00:11:08;3.10;99.90
48206;DHT22;33995;48.202;16.260;2023-12-07T00:13:35;3.10;99.90
48206;DHT22;33995;48.202;16.260;2023-12-07T00:16:02;3.10;99.90
48206;DHT22;33995;48.202;16.260;2023-12-07T00:18:29;3.10;99.90
48206;DHT22;33995;48.202;16.260;2023-12-07T00:20:56;3.10;99.90
48206;DHT22;33995;48.202;16.260;2023-12-07T00:23:23;3.10;99.90
48206;DHT22;33995;48.202;16.260;2023-12-07T00:25:50;3.00;99.90
48206;DHT22;33995;48.202;16.260;2023-12-07T00:28:19;3.10;99.90
48206;DHT22;33995;48.202;16.260;2023-12-07T00:30:46;2.90;99.90
48206;DHT22;33995;48.202;16.260;2023-12-07T00:33:13;3.00;99.90
48206;DHT22;33995;48.202;16.260;2023-12-07T00:35:42;3.00;99.90
48206;DHT22;33995;48.202;16.260;2023-12-07T00:38:10;3.00;99.90
48206;DHT22;33995;48.202;16.260;2023-12-07T00:40:37;3.00;99.90
48206;DHT22;33995;48.202;16.260;2023-12-07T00:43:08;3.00;99.90
48206;DHT22;33995;48.202;16.260;2023-12-07T00:45:36;3.00;99.90
48206;DHT22;33995;48.202;16.260;2023-12-07T00:48:07;3.00;99.90
48206;DHT22;33995;48.202;16.260;2023-12-07T00:50:33;3.00;99.90
48206;DHT22;33995;48.202;16.260;2023-12-07T00:53:00;3.00;99.90
48206;DHT22;33995;48.202;16.260;2023-12-07T00:55:27;2.90;99.90
48206;DHT22;33995;48.202;16.260;2023-12-07T00:58:00;3.00;99.90
48206;DHT22;33995;48.202;16.260;2023-12-07T01:00:28;3.00;99.90
48206;DHT22;33995;48.202;16.260;2023-12-07T01:02:55;3.00;99.90
48206;DHT22;33995;48.202;16.260;2023-12-07T01:05:22;3.00;99.90
48206;DHT22;33995;48.202;16.260;2023-12-07T01:07:50;3.00;99.90
48206;DHT22;33995;48.202;16.260;2023-12-07T01:10:18;2.90;99.90
48206;DHT22;33995;48.202;16.260;2023-12-07T01:12:47;2.90;99.90
48206;DHT22;33995;48.202;16.260;2023-12-07T01:15:14;2.90;99.90
48206;DHT22;33995;48.202;16.260;2023-12-07T01:17:41;2.90;99.90
48206;DHT22;33995;48.202;16.260;2023-12-07T01:20:09;2.90;99.90
48206;DHT22;33995;48.202;16.260;2023-12-07T01:22:42;2.90;99.90
48206;DHT22;33995;48.202;16.260;2023-12-07T01:25:10;2.90;99.90
48206;DHT22;33995;48.202;16.260;2023-12-07T01:27:37;2.90;99.90
48206;DHT22;33995;48.202;16.260;2023-12-07T01:30:05;2.80;99.90
48206;DHT22;33995;48.202;16.260;2023-12-07T01:32:32;2.90;99.90
48206;DHT22;33995;48.202;16.260;2023-12-07T01:34:59;2.90;99.90
48206;DHT22;33995;48.202;16.260;2023-12-07T01:37:26;2.90;99.90
48206;DHT22;33995;48.202;16.260;2023-12-07T01:39:55;2.80;99.90
48206;DHT22;33995;48.202;16.260;2023-12-07T01:42:23;2.90;99.90
48206;DHT22;33995;48.202;16.260;2023-12-07T01:44:50;2.70;99.90
48206;DHT22;33995;48.202;16.260;2023-12-07T01:47:18;2.70;99.90
48206;DHT22;33995;48.202;16.260;2023-12-07T01:49:45;2.80;99.90
48206;DHT22;33995;48.202;16.260;2023-12-07T01:52:15;2.80;99.90
48206;DHT22;33995;48.202;16.260;2023-12-07T01:54:43;2.70;99.90
48206;DHT22;33995;48.202;16.260;2023-12-07T01:57:10;2.70;99.90
48206;DHT22;33995;48.202;16.260;2023-12-07T01:59:37;2.70;99.90
48206;DHT22;33995;48.202;16.260;2023-12-07T02:02:04;2.70;99.90
48206;DHT22;33995;48.202;16.260;2023-12-07T02:04:31;2.70;99.90
48206;DHT22;33995;48.202;16.260;2023-12-07T02:07:00;2.80;99.90
48206;DHT22;33995;48.202;16.260;2023-12-07T02:09:28;2.80;99.90
48206;DHT22;33995;48.202;16.260;2023-12-07T02:11:55;2.70;99.90
48206;DHT22;33995;48.202;16.260;2023-12-07T02:14:22;2.70;99.90
48206;DHT22;33995;48.202;16.260;2023-12-07T02:16:54;2.70;99.90
48206;DHT22;33995;48.202;16.260;2023-12-07T02:22:21;2.70;99.90
48206;DHT22;33995;48.202;16.260;2023-12-07T02:30:06;2.70;99.90
48206;DHT22;33995;48.202;16.260;2023-12-07T02:32:39;2.70;99.90
48206;DHT22;33995;48.202;16.260;2023-12-07T02:35:09;2.80;99.90
48206;DHT22;33995;48.202;16.260;2023-12-07T02:37:49;2.80;99.90
48206;DHT22;33995;48.202;16.260;2023-12-07T02:40:25;2.70;99.90
48206;DHT22;33995;48.202;16.260;2023-12-07T02:42:53;2.80;99.90
48206;DHT22;33995;48.202;16.260;2023-12-07T02:45:21;2.80;99.90
48206;DHT22;33995;48.202;16.260;2023-12-07T02:47:48;2.70;99.90
48206;DHT22;33995;48.202;16.260;2023-12-07T02:50:15;2.70;99.90
48206;DHT22;33995;48.202;16.260;2023-12-07T02:52:43;2.70;99.90
48206;DHT22;33995;48.202;16.260;2023-12-07T02:55:11;2.70;99.90
48206;DHT22;33995;48.202;16.260;2023-12-07T02:57:39;2.70;99.90
48206;DHT22;33995;48.202;16.260;2023-12-07T03:00:07;2.60;99.90
48206;DHT22;33995;48.202;16.260;2023-12-07T03:03:02;2.60;99.90
48206;DHT22;33995;48.202;16.260;2023-12-07T03:05:29;2.70;99.90
48206;DHT22;33995;48.202;16.260;2023-12-07T03:07:56;2.60;99.90
48206;DHT22;33995;48.202;16.260;2023-12-07T03:10:23;2.60;99.90
48206;DHT22;33995;48.202;16.260;2023-12-07T03:12:51;2.60;99.90
48206;DHT22;33995;48.202;16.260;2023-12-07T03:15:18;2.60;99.90
48206;DHT22;33995;48.202;16.260;2023-12-07T03:17:46;2.60;99.90
48206;DHT22;33995;48.202;16.260;2023-12-07T03:20:15;2.60;99.90
48206;DHT22;33995;48.202;16.260;2023-12-07T03:22:42;2.60;99.90
48206;DHT22;33995;48.202;16.260;2023-12-07T03:25:09;2.60;99.90
48206;DHT22;33995;48.202;16.260;2023-12-07T03:27:37;2.60;99.90
48206;DHT22;33995;48.202;16.260;2023-12-07T03:30:04;2.60;99.90
48206;DHT22;33995;48.202;16.260;2023-12-07T03:32:34;2.60;99.90
48206;DHT22;33995;48.202;16.260;2023-12-07T03:35:01;2.70;99.90
48206;DHT22;33995;48.202;16.260;2023-12-07T03:37:28;2.60;99.90
48206;DHT22;33995;48.202;16.260;2023-12-07T03:39:55;2.70;99.90
48206;DHT22;33995;48.202;16.260;2023-12-07T03:42:24;2.50;99.90
48206;DHT22;33995;48.202;16.260;2023-12-07T03:45:12;2.60;99.90
48206;DHT22;33995;48.202;16.260;2023-12-07T03:47:39;2.50;99.90
48206;DHT22;33995;48.202;16.260;2023-12-07T03:50:06;2.50;99.90
48206;DHT22;33995;48.202;16.260;2023-12-07T03:52:33;2.60;99.90
48206;DHT22;33995;48.202;16.260;2023-12-07T03:55:00;2.60;99.90
48206;DHT22;33995;48.202;16.260;2023-12-07T03:57:27;2.70;99.90
48206;DHT22;33995;48.202;16.260;2023-12-07T03:59:55;2.70;99.90
48206;DHT22;33995;48.202;16.260;2023-12-07T04:02:22;2.70;99.90
48206;DHT22;33995;48.202;16.260;2023-12-07T04:04:50;2.70;99.90
48206;DHT22;33995;48.202;16.260;2023-12-07T04:07:17;2.70;99.90
48206;DHT22;33995;48.202;16.260;2023-12-07T04:09:44;2.70;99.90
48206;DHT22;33995;48.202;16.260;2023-12-07T04:12:11;2.70;99.90
48206;DHT22;33995;48.202;16.260;2023-12-07T04:14:38;2.70;99.90
48206;DHT22;33995;48.202;16.260;2023-12-07T04:17:07;2.70;99.90
48206;DHT22;33995;48.202;16.260;2023-12-07T04:19:36;2.80;99.90
48206;DHT22;33995;48.202;16.260;2023-12-07T04:22:09;2.70;99.90
48206;DHT22;33995;48.202;16.260;2023-12-07T04:24:39;2.70;99.90
48206;DHT22;33995;48.202;16.260;2023-12-07T04:27:06;2.70;99.90
48206;DHT22;33995;48.202;16.260;2023-12-07T04:29:36;2.70;99.90
48206;DHT22;33995;48.202;16.260;2023-12-07T04:32:09;2.70;99.90
48206;DHT22;33995;48.202;16.260;2023-12-07T04:34:36;2.60;99.90
48206;DHT22;33995;48.202;16.260;2023-12-07T04:37:04;2.70;99.90
48206;DHT22;33995;48.202;16.260;2023-12-07T04:39:36;2.70;99.90
48206;DHT22;33995;48.202;16.260;2023-12-07T04:42:03;2.70;99.90
48206;DHT22;33995;48.202;16.260;2023-12-07T04:44:31;2.80;99.90
48206;DHT22;33995;48.202;16.260;2023-12-07T04:46:58;2.80;99.90
48206;DHT22;33995;48.202;16.260;2023-12-07T04:49:25;2.70;99.90
48206;DHT22;33995;48.202;16.260;2023-12-07T04:51:52;2.70;99.90
48206;DHT22;33995;48.202;16.260;2023-12-07T04:54:19;2.70;99.90
48206;DHT22;33995;48.202;16.260;2023-12-07T04:56:47;2.80;99.90
48206;DHT22;33995;48.202;16.260;2023-12-07T04:59:14;2.70;99.90
48206;DHT22;33995;48.202;16.260;2023-12-07T05:01:41;2.70;99.90
48206;DHT22;33995;48.202;16.260;2023-12-07T05:04:08;2.70;99.90
48206;DHT22;33995;48.202;16.260;2023-12-07T05:06:35;2.70;99.90
48206;DHT22;33995;48.202;16.260;2023-12-07T05:09:03;2.70;99.90
48206;DHT22;33995;48.202;16.260;2023-12-07T05:11:30;2.70;99.90
48206;DHT22;33995;48.202;16.260;2023-12-07T05:13:57;2.70;99.90
48206;DHT22;33995;48.202;16.260;2023-12-07T05:16:24;2.70;99.90
48206;DHT22;33995;48.202;16.260;2023-12-07T05:18:52;2.70;99.90
48206;DHT22;33995;48.202;16.260;2023-12-07T05:21:20;2.70;99.90
48206;DHT22;33995;48.202;16.260;2023-12-07T05:23:47;2.70;99.90
48206;DHT22;33995;48.202;16.260;2023-12-07T05:26:16;2.60;99.90
48206;DHT22;33995;48.202;16.260;2023-12-07T05:28:45;2.60;99.90
48206;DHT22;33995;48.202;16.260;2023-12-07T05:31:17;2.60;99.90
48206;DHT22;33995;48.202;16.260;2023-12-07T05:33:47;2.60;99.90
48206;DHT22;33995;48.202;16.260;2023-12-07T05:36:15;2.70;99.90
48206;DHT22;33995;48.202;16.260;2023-12-07T05:38:55;2.70;99.90
48206;DHT22;33995;48.202;16.260;2023-12-07T05:41:24;2.70;99.90
48206;DHT22;33995;48.202;16.260;2023-12-07T05:43:53;2.70;99.90
48206;DHT22;33995;48.202;16.260;2023-12-07T05:46:22;2.70;99.90
48206;DHT22;33995;48.202;16.260;2023-12-07T05:48:50;2.70;99.90
48206;DHT22;33995;48.202;16.260;2023-12-07T05:51:23;2.70;99.90
48206;DHT22;33995;48.202;16.260;2023-12-07T05:53:51;2.60;99.90
48206;DHT22;33995;48.202;16.260;2023-12-07T05:56:23;2.70;99.90
48206;DHT22;33995;48.202;16.260;2023-12-07T05:58:54;2.60;99.90
48206;DHT22;33995;48.202;16.260;2023-12-07T06:01:21;2.60;99.90
48206;DHT22;33995;48.202;16.260;2023-12-07T06:03:50;2.60;99.90
48206;DHT22;33995;48.202;16.260;2023-12-07T06:06:17;2.70;99.90
48206;DHT22;33995;48.202;16.260;2023-12-07T06:08:44;2.70;99.90
48206;DHT22;33995;48.202;16.260;2023-12-07T06:11:12;2.70;99.90
48206;DHT22;33995;48.202;16.260;2023-12-07T06:13:39;2.70;99.90
48206;DHT22;33995;48.202;16.260;2023-12-07T06:16:11;2.70;99.90
48206;DHT22;33995;48.202;16.260;2023-12-07T06:18:40;2.60;99.90
48206;DHT22;33995;48.202;16.260;2023-12-07T06:21:14;2.60;99.90
48206;DHT22;33995;48.202;16.260;2023-12-07T06:23:43;2.60;99.90
48206;DHT22;33995;48.202;16.260;2023-12-07T06:26:15;2.60;99.90
48206;DHT22;33995;48.202;16.260;2023-12-07T06:28:44;2.60;99.90
48206;DHT22;33995;48.202;16.260;2023-12-07T06:31:11;2.70;99.90
48206;DHT22;33995;48.202;16.260;2023-12-07T06:33:42;2.60;99.90
48206;DHT22;33995;48.202;16.260;2023-12-07T06:36:18;2.70;99.90
48206;DHT22;33995;48.202;16.260;2023-12-07T06:38:47;2.70;99.90
48206;DHT22;33995;48.202;16.260;2023-12-07T06:41:18;2.70;99.90
48206;DHT22;33995;48.202;16.260;2023-12-07T06:43:47;2.70;99.90
48206;DHT22;33995;48.202;16.260;2023-12-07T06:46:14;2.70;99.90
48206;DHT22;33995;48.202;16.260;2023-12-07T06:48:44;2.70;99.90
48206;DHT22;33995;48.202;16.260;2023-12-07T06:51:13;2.70;99.90
48206;DHT22;33995;48.202;16.260;2023-12-07T06:53:42;2.80;99.90
48206;DHT22;33995;48.202;16.260;2023-12-07T06:56:09;2.80;99.90
48206;DHT22;33995;48.202;16.260;2023-12-07T06:58:36;2.80;99.90
48206;DHT22;33995;48.202;16.260;2023-12-07T07:01:05;2.80;99.90
48206;DHT22;33995;48.202;16.260;2023-12-07T07:03:32;2.70;99.90
48206;DHT22;33995;48.202;16.260;2023-12-07T07:05:59;2.70;99.90
48206;DHT22;33995;48.202;16.260;2023-12-07T07:08:29;2.70;99.90
48206;DHT22;33995;48.202;16.260;2023-12-07T07:10:56;2.70;99.90
48206;DHT22;33995;48.202;16.260;2023-12-07T07:13:23;2.70;99.90
48206;DHT22;33995;48.202;16.260;2023-12-07T07:15:51;2.70;99.90
48206;DHT22;33995;48.202;16.260;2023-12-07T07:18:21;2.70;99.90
48206;DHT22;33995;48.202;16.260;2023-12-07T07:20:52;2.70;99.90
48206;DHT22;33995;48.202;16.260;2023-12-07T07:23:19;2.80;99.90
48206;DHT22;33995;48.202;16.260;2023-12-07T07:25:47;2.80;99.90
48206;DHT22;33995;48.202;16.260;2023-12-07T07:28:14;2.80;99.90
48206;DHT22;33995;48.202;16.260;2023-12-07T07:30:42;2.70;99.90
48206;DHT22;33995;48.202;16.260;2023-12-07T07:33:08;2.70;99.90
48206;DHT22;33995;48.202;16.260;2023-12-07T07:35:38;2.80;99.90
48206;DHT22;33995;48.202;16.260;2023-12-07T07:38:05;2.80;99.90
48206;DHT22;33995;48.202;16.260;2023-12-07T07:40:32;2.70;99.90
48206;DHT22;33995;48.202;16.260;2023-12-07T07:43:00;2.80;99.90
48206;DHT22;33995;48.202;16.260;2023-12-07T07:45:26;2.80;99.90
48206;DHT22;33995;48.202;16.260;2023-12-07T07:47:54;2.80;99.90
48206;DHT22;33995;48.202;16.260;2023-12-07T07:50:25;2.80;99.90
48206;DHT22;33995;48.202;16.260;2023-12-07T07:52:54;2.80;99.90
48206;DHT22;33995;48.202;16.260;2023-12-07T07:55:23;2.90;99.90
48206;DHT22;33995;48.202;16.260;2023-12-07T07:57:52;2.80;99.90
48206;DHT22;33995;48.202;16.260;2023-12-07T08:00:21;2.80;99.90
48206;DHT22;33995;48.202;16.260;2023-12-07T08:02:48;2.80;99.90
48206;DHT22;33995;48.202;16.260;2023-12-07T08:05:15;2.80;99.90
48206;DHT22;33995;48.202;16.260;2023-12-07T08:07:43;2.80;99.90
48206;DHT22;33995;48.202;16.260;2023-12-07T08:10:12;2.90;99.90
48206;DHT22;33995;48.202;16.260;2023-12-07T08:12:40;2.80;99.90
48206;DHT22;33995;48.202;16.260;2023-12-07T08:15:12;2.80;99.90
48206;DHT22;33995;48.202;16.260;2023-12-07T08:17:42;2.90;99.90
48206;DHT22;33995;48.202;16.260;2023-12-07T08:20:11;2.80;99.90
48206;DHT22;33995;48.202;16.260;2023-12-07T08:22:41;2.80;99.90
48206;DHT22;33995;48.202;16.260;2023-12-07T08:25:11;2.90;99.90
48206;DHT22;33995;48.202;16.260;2023-12-07T08:27:39;3.00;99.90
48206;DHT22;33995;48.202;16.260;2023-12-07T08:30:09;3.00;99.90
48206;DHT22;33995;48.202;16.260;2023-12-07T08:32:38;3.00;99.90
48206;DHT22;33995;48.202;16.260;2023-12-07T08:35:07;3.10;99.90
48206;DHT22;33995;48.202;16.260;2023-12-07T08:37:37;3.10;99.90
48206;DHT22;33995;48.202;16.260;2023-12-07T08:40:09;3.10;99.90
48206;DHT22;33995;48.202;16.260;2023-12-07T08:42:40;3.10;99.90
48206;DHT22;33995;48.202;16.260;2023-12-07T08:45:09;3.10;99.90
48206;DHT22;33995;48.202;16.260;2023-12-07T08:47:41;3.00;99.90
48206;DHT22;33995;48.202;16.260;2023-12-07T08:50:09;3.00;99.90
48206;DHT22;33995;48.202;16.260;2023-12-07T08:52:36;3.10;99.90
48206;DHT22;33995;48.202;16.260;2023-12-07T08:55:14;3.20;99.90
48206;DHT22;33995;48.202;16.260;2023-12-07T08:57:45;3.20;99.90
48206;DHT22;33995;48.202;16.260;2023-12-07T09:00:15;3.20;99.90
48206;DHT22;33995;48.202;16.260;2023-12-07T09:02:42;3.20;99.90
48206;DHT22;33995;48.202;16.260;2023-12-07T09:05:15;3.10;99.90
48206;DHT22;33995;48.202;16.260;2023-12-07T09:07:47;3.20;99.90
48206;DHT22;33995;48.202;16.260;2023-12-07T09:10:15;3.20;99.90
48206;DHT22;33995;48.202;16.260;2023-12-07T09:12:46;3.20;99.90
48206;DHT22;33995;48.202;16.260;2023-12-07T09:15:16;3.30;99.90
48206;DHT22;33995;48.202;16.260;2023-12-07T09:17:46;3.40;99.90
48206;DHT22;33995;48.202;16.260;2023-12-07T09:20:32;3.40;99.90
48206;DHT22;33995;48.202;16.260;2023-12-07T09:23:00;3.40;99.90
48206;DHT22;33995;48.202;16.260;2023-12-07T09:25:27;3.50;99.90
48206;DHT22;33995;48.202;16.260;2023-12-07T09:27:56;3.50;99.90
48206;DHT22;33995;48.202;16.260;2023-12-07T09:30:23;3.50;99.90
48206;DHT22;33995;48.202;16.260;2023-12-07T09:32:52;3.70;99.90
48206;DHT22;33995;48.202;16.260;2023-12-07T09:35:21;3.70;99.90
48206;DHT22;33995;48.202;16.260;2023-12-07T09:37:51;3.60;99.90
48206;DHT22;33995;48.202;16.260;2023-12-07T09:40:24;3.80;99.90
48206;DHT22;33995;48.202;16.260;2023-12-07T09:42:53;3.90;99.90
48206;DHT22;33995;48.202;16.260;2023-12-07T09:45:21;3.80;99.90
48206;DHT22;33995;48.202;16.260;2023-12-07T09:47:55;4.00;99.90
48206;DHT22;33995;48.202;16.260;2023-12-07T09:50:27;3.80;99.90
48206;DHT22;33995;48.202;16.260;2023-12-07T09:52:56;3.90;99.90
48206;DHT22;33995;48.202;16.260;2023-12-07T09:55:27;4.00;99.90
48206;DHT22;33995;48.202;16.260;2023-12-07T09:57:56;4.10;99.90
48206;DHT22;33995;48.202;16.260;2023-12-07T10:00:25;4.00;99.90
48206;DHT22;33995;48.202;16.260;2023-12-07T10:02:53;4.00;99.90
48206;DHT22;33995;48.202;16.260;2023-12-07T10:05:21;4.00;99.90
48206;DHT22;33995;48.202;16.260;2023-12-07T10:07:50;4.10;99.90
48206;DHT22;33995;48.202;16.260;2023-12-07T10:10:18;4.50;99.90
48206;DHT22;33995;48.202;16.260;2023-12-07T10:12:48;4.60;99.90
48206;DHT22;33995;48.202;16.260;2023-12-07T10:15:18;4.60;99.90
48206;DHT22;33995;48.202;16.260;2023-12-07T10:17:50;4.50;99.90
48206;DHT22;33995;48.202;16.260;2023-12-07T10:20:21;4.60;99.90
48206;DHT22;33995;48.202;16.260;2023-12-07T10:23:06;4.70;99.90
48206;DHT22;33995;48.202;16.260;2023-12-07T10:25:42;4.90;99.90
48206;DHT22;33995;48.202;16.260;2023-12-07T10:28:11;4.70;99.90
48206;DHT22;33995;48.202;16.260;2023-12-07T10:30:42;4.90;99.90
48206;DHT22;33995;48.202;16.260;2023-12-07T10:33:15;5.00;99.90
48206;DHT22;33995;48.202;16.260;2023-12-07T10:35:44;5.10;99.90
48206;DHT22;33995;48.202;16.260;2023-12-07T10:38:13;5.10;99.90
48206;DHT22;33995;48.202;16.260;2023-12-07T10:40:40;4.90;99.90
48206;DHT22;33995;48.202;16.260;2023-12-07T10:43:12;4.70;99.90
48206;DHT22;33995;48.202;16.260;2023-12-07T10:45:43;4.70;99.90
48206;DHT22;33995;48.202;16.260;2023-12-07T10:48:14;4.70;99.90
48206;DHT22;33995;48.202;16.260;2023-12-07T10:50:46;4.70;99.90
48206;DHT22;33995;48.202;16.260;2023-12-07T10:53:27;4.70;99.90
48206;DHT22;33995;48.202;16.260;2023-12-07T10:56:00;4.80;99.90
48206;DHT22;33995;48.202;16.260;2023-12-07T10:58:27;4.90;99.90
48206;DHT22;33995;48.202;16.260;2023-12-07T11:00:56;4.90;99.90
48206;DHT22;33995;48.202;16.260;2023-12-07T11:03:25;4.90;99.90
48206;DHT22;33995;48.202;16.260;2023-12-07T11:05:53;4.70;99.90
48206;DHT22;33995;48.202;16.260;2023-12-07T11:08:36;4.70;99.90
48206;DHT22;33995;48.202;16.260;2023-12-07T11:16:31;4.80;99.90
48206;DHT22;33995;48.202;16.260;2023-12-07T11:18:59;4.80;99.90
48206;DHT22;33995;48.202;16.260;2023-12-07T11:21:27;4.80;99.90
48206;DHT22;33995;48.202;16.260;2023-12-07T11:23:54;4.80;99.90
48206;DHT22;33995;48.202;16.260;2023-12-07T11:26:26;4.70;99.90
48206;DHT22;33995;48.202;16.260;2023-12-07T11:28:55;4.60;99.90
48206;DHT22;33995;48.202;16.260;2023-12-07T11:31:25;4.70;99.90
48206;DHT22;33995;48.202;16.260;2023-12-07T11:33:53;4.70;99.90
48206;DHT22;33995;48.202;16.260;2023-12-07T11:36:24;4.60;99.90
48206;DHT22;33995;48.202;16.260;2023-12-07T11:41:51;4.70;99.90
48206;DHT22;33995;48.202;16.260;2023-12-07T11:44:36;4.60;99.90
48206;DHT22;33995;48.202;16.260;2023-12-07T11:47:04;4.60;99.90
48206;DHT22;33995;48.202;16.260;2023-12-07T11:49:32;4.50;99.90
48206;DHT22;33995;48.202;16.260;2023-12-07T11:52:13;4.60;99.90
48206;DHT22;33995;48.202;16.260;2023-12-07T11:54:45;4.60;99.90
48206;DHT22;33995;48.202;16.260;2023-12-07T11:57:16;4.50;99.90
48206;DHT22;33995;48.202;16.260;2023-12-07T11:59:46;4.50;99.90
48206;DHT22;33995;48.202;16.260;2023-12-07T12:02:18;4.50;99.90
48206;DHT22;33995;48.202;16.260;2023-12-07T12:04:46;4.40;99.90
48206;DHT22;33995;48.202;16.260;2023-12-07T12:07:14;4.40;99.90
48206;DHT22;33995;48.202;16.260;2023-12-07T12:09:44;4.50;99.90
48206;DHT22;33995;48.202;16.260;2023-12-07T12:12:13;4.50;99.90
48206;DHT22;33995;48.202;16.260;2023-12-07T12:14:42;4.50;99.90
48206;DHT22;33995;48.202;16.260;2023-12-07T12:17:15;4.50;99.90
48206;DHT22;33995;48.202;16.260;2023-12-07T12:19:43;4.40;99.90
48206;DHT22;33995;48.202;16.260;2023-12-07T12:22:13;4.50;99.90
48206;DHT22;33995;48.202;16.260;2023-12-07T12:24:41;4.40;99.90
48206;DHT22;33995;48.202;16.260;2023-12-07T12:27:10;4.40;99.90
48206;DHT22;33995;48.202;16.260;2023-12-07T12:29:42;4.50;99.90
48206;DHT22;33995;48.202;16.260;2023-12-07T12:32:09;4.50;99.90
48206;DHT22;33995;48.202;16.260;2023-12-07T12:34:40;4.60;99.90
48206;DHT22;33995;48.202;16.260;2023-12-07T12:37:10;4.60;99.90
48206;DHT22;33995;48.202;16.260;2023-12-07T12:39:41;4.60;99.90
48206;DHT22;33995;48.202;16.260;2023-12-07T12:42:11;4.60;99.90
48206;DHT22;33995;48.202;16.260;2023-12-07T12:44:42;4.50;99.90
48206;DHT22;33995;48.202;16.260;2023-12-07T12:47:09;4.60;99.90
48206;DHT22;33995;48.202;16.260;2023-12-07T12:49:39;4.60;99.90
48206;DHT22;33995;48.202;16.260;2023-12-07T12:52:14;4.60;99.90
48206;DHT22;33995;48.202;16.260;2023-12-07T12:54:44;4.60;99.90
48206;DHT22;33995;48.202;16.260;2023-12-07T12:57:12;4.60;99.90
48206;DHT22;33995;48.202;16.260;2023-12-07T12:59:46;4.60;99.90
48206;DHT22;33995;48.202;16.260;2023-12-07T13:02:15;4.60;99.90
48206;DHT22;33995;48.202;16.260;2023-12-07T13:04:42;4.60;99.90
48206;DHT22;33995;48.202;16.260;2023-12-07T13:07:09;4.70;99.90
48206;DHT22;33995;48.202;16.260;2023-12-07T13:09:37;4.60;99.90
48206;DHT22;33995;48.202;16.260;2023-12-07T13:12:05;4.60;99.90
48206;DHT22;33995;48.202;16.260;2023-12-07T13:14:33;4.80;99.90
48206;DHT22;33995;48.202;16.260;2023-12-07T13:17:05;5.40;99.90
48206;DHT22;33995;48.202;16.260;2023-12-07T13:19:34;5.80;99.90
48206;DHT22;33995;48.202;16.260;2023-12-07T13:22:02;6.20;99.90
48206;DHT22;33995;48.202;16.260;2023-12-07T13:24:33;6.90;99.90
48206;DHT22;33995;48.202;16.260;2023-12-07T13:27:00;8.80;99.90
48206;DHT22;33995;48.202;16.260;2023-12-07T13:29:27;8.40;99.90
48206;DHT22;33995;48.202;16.260;2023-12-07T13:32:03;8.10;99.90
48206;DHT22;33995;48.202;16.260;2023-12-07T13:34:31;7.50;99.90
48206;DHT22;33995;48.202;16.260;2023-12-07T13:36:58;6.90;99.90
48206;DHT22;33995;48.202;16.260;2023-12-07T13:39:25;7.40;99.90
48206;DHT22;33995;48.202;16.260;2023-12-07T13:41:58;6.90;99.90
48206;DHT22;33995;48.202;16.260;2023-12-07T13:44:28;6.10;99.90
48206;DHT22;33995;48.202;16.260;2023-12-07T13:46:56;5.60;99.90
48206;DHT22;33995;48.202;16.260;2023-12-07T13:49:24;5.10;99.90
48206;DHT22;33995;48.202;16.260;2023-12-07T13:52:03;4.80;99.90
48206;DHT22;33995;48.202;16.260;2023-12-07T13:54:38;4.60;99.90
48206;DHT22;33995;48.202;16.260;2023-12-07T13:57:20;4.40;99.90
48206;DHT22;33995;48.202;16.260;2023-12-07T13:59:48;4.00;99.90
48206;DHT22;33995;48.202;16.260;2023-12-07T14:02:23;4.00;99.90
48206;DHT22;33995;48.202;16.260;2023-12-07T14:04:52;3.90;99.90
48206;DHT22;33995;48.202;16.260;2023-12-07T14:07:21;3.90;99.90
48206;DHT22;33995;48.202;16.260;2023-12-07T14:09:52;3.80;99.90
48206;DHT22;33995;48.202;16.260;2023-12-07T14:12:25;3.70;99.90
48206;DHT22;33995;48.202;16.260;2023-12-07T14:14:56;3.60;99.90
48206;DHT22;33995;48.202;16.260;2023-12-07T14:17:23;3.60;99.90
48206;DHT22;33995;48.202;16.260;2023-12-07T14:19:53;3.50;99.90
48206;DHT22;33995;48.202;16.260;2023-12-07T14:22:37;3.50;99.90
48206;DHT22;33995;48.202;16.260;2023-12-07T14:25:10;3.40;99.90
48206;DHT22;33995;48.202;16.260;2023-12-07T14:27:38;3.30;99.90
48206;DHT22;33995;48.202;16.260;2023-12-07T14:30:08;3.30;99.90
48206;DHT22;33995;48.202;16.260;2023-12-07T14:32:39;3.20;99.90
48206;DHT22;33995;48.202;16.260;2023-12-07T14:35:20;3.20;99.90
48206;DHT22;33995;48.202;16.260;2023-12-07T14:37:48;3.10;99.90
48206;DHT22;33995;48.202;16.260;2023-12-07T14:40:17;3.10;99.90
48206;DHT22;33995;48.202;16.260;2023-12-07T14:42:44;3.00;99.90
48206;DHT22;33995;48.202;16.260;2023-12-07T14:45:12;3.00;99.90
48206;DHT22;33995;48.202;16.260;2023-12-07T14:47:44;3.00;99.90
48206;DHT22;33995;48.202;16.260;2023-12-07T14:50:14;3.00;99.90
48206;DHT22;33995;48.202;16.260;2023-12-07T14:52:43;3.00;99.90
48206;DHT22;33995;48.202;16.260;2023-12-07T14:55:13;3.00;99.90
48206;DHT22;33995;48.202;16.260;2023-12-07T14:57:45;2.90;99.90
48206;DHT22;33995;48.202;16.260;2023-12-07T15:00:13;2.90;99.90
48206;DHT22;33995;48.202;16.260;2023-12-07T15:02:40;2.90;99.90
48206;DHT22;33995;48.202;16.260;2023-12-07T15:05:08;3.00;99.90
48206;DHT22;33995;48.202;16.260;2023-12-07T15:07:35;3.00;99.90
48206;DHT22;33995;48.202;16.260;2023-12-07T15:10:03;3.00;99.90
48206;DHT22;33995;48.202;16.260;2023-12-07T15:12:30;3.00;99.90
48206;DHT22;33995;48.202;16.260;2023-12-07T15:14:58;3.00;99.90
48206;DHT22;33995;48.202;16.260;2023-12-07T15:17:25;3.00;99.90
48206;DHT22;33995;48.202;16.260;2023-12-07T15:19:55;3.00;99.90
48206;DHT22;33995;48.202;16.260;2023-12-07T15:22:24;3.00;99.90
48206;DHT22;33995;48.202;16.260;2023-12-07T15:24:51;3.00;99.90
48206;DHT22;33995;48.202;16.260;2023-12-07T15:27:22;3.00;99.90
48206;DHT22;33995;48.202;16.260;2023-12-07T15:29:50;3.00;99.90
48206;DHT22;33995;48.202;16.260;2023-12-07T15:32:19;3.00;99.90
48206;DHT22;33995;48.202;16.260;2023-12-07T15:34:55;3.10;99.90
48206;DHT22;33995;48.202;16.260;2023-12-07T15:37:24;3.10;99.90
48206;DHT22;33995;48.202;16.260;2023-12-07T15:39:52;3.10;99.90
48206;DHT22;33995;48.202;16.260;2023-12-07T15:42:22;3.10;99.90
48206;DHT22;33995;48.202;16.260;2023-12-07T15:44:54;3.10;99.90
48206;DHT22;33995;48.202;16.260;2023-12-07T15:47:21;3.00;99.90
48206;DHT22;33995;48.202;16.260;2023-12-07T15:49:49;3.10;99.90
48206;DHT22;33995;48.202;16.260;2023-12-07T15:52:20;3.10;99.90
48206;DHT22;33995;48.202;16.260;2023-12-07T15:54:49;3.10;99.90
48206;DHT22;33995;48.202;16.260;2023-12-07T15:57:18;3.10;99.90
48206;DHT22;33995;48.202;16.260;2023-12-07T15:59:45;3.10;99.90